createdAt,value
2023-05-01T00:03:40.492Z,13.94
2023-05-01T00:08:42.696Z,13.56
2023-05-01T00:13:41.946Z,13.30
2023-05-01T00:18:43.004Z,13.21
2023-05-01T00:23:45.084Z,13.15
2023-05-01T00:28:44.134Z,13.22
2023-05-01T00:33:44.201Z,13.44
2023-05-01T00:38:45.270Z,13.54
2023-05-01T00:43:46.350Z,13.55
2023-05-01T00:48:47.452Z,13.44
2023-05-01T00:53:49.580Z,13.54
2023-05-01T00:58:49.658Z,13.51
2023-05-01T01:03:50.745Z,13.38
2023-05-01T01:08:49.825Z,13.37
2023-05-01T01:13:51.914Z,13.20
2023-05-01T01:18:52.007Z,13.14
2023-05-01T01:23:53.106Z,13.11
2023-05-01T01:28:52.179Z,13.25
2023-05-01T01:33:54.242Z,13.14
2023-05-01T01:38:54.349Z,13.09
2023-05-01T01:43:54.433Z,13.12
2023-05-01T01:48:54.528Z,13.11
2023-05-01T01:53:53.607Z,13.04
2023-05-01T01:58:55.705Z,13.07
2023-05-01T02:03:54.897Z,13.07
2023-05-01T02:08:56.013Z,13.07
2023-05-01T02:13:57.133Z,13.03
2023-05-01T02:18:57.222Z,12.95
2023-05-01T02:23:58.269Z,12.99
2023-05-01T02:29:00.345Z,12.88
2023-05-01T02:33:59.433Z,12.85
2023-05-01T02:39:00.499Z,12.84
2023-05-01T02:44:02.588Z,12.82
2023-05-01T02:49:06.574Z,12.82
2023-05-01T02:54:01.639Z,12.41
2023-05-01T02:59:03.749Z,12.29
2023-05-01T03:04:03.905Z,12.42
2023-05-01T03:09:03.957Z,12.45
2023-05-01T03:14:04.057Z,12.56
2023-05-01T03:19:03.140Z,12.56
2023-05-01T03:24:05.202Z,12.51
2023-05-01T03:29:06.293Z,12.46
2023-05-01T03:34:06.394Z,12.42
2023-05-01T03:39:05.498Z,12.41
2023-05-01T03:44:09.622Z,12.05
2023-05-01T03:49:06.707Z,11.87
2023-05-01T03:54:09.817Z,11.75
2023-05-01T03:59:09.924Z,11.52
2023-05-01T04:04:11.239Z,11.64
2023-05-01T04:09:10.349Z,11.53
2023-05-01T04:14:11.770Z,11.59
2023-05-01T04:19:12.870Z,11.28
2023-05-01T04:24:16.959Z,11.16
2023-05-01T04:29:14.073Z,11.28
2023-05-01T04:34:15.185Z,11.43
2023-05-01T04:39:18.292Z,11.28
2023-05-01T04:44:17.476Z,11.32
2023-05-01T04:49:18.583Z,11.36
2023-05-01T04:54:20.658Z,11.17
2023-05-01T04:59:20.774Z,11.34
2023-05-01T05:04:21.878Z,11.41
2023-05-01T05:09:21.022Z,11.46
2023-05-01T05:14:22.233Z,11.61
2023-05-01T05:19:23.653Z,11.61
2023-05-01T05:24:24.808Z,11.65
2023-05-01T05:29:26.067Z,11.53
2023-05-01T05:34:27.447Z,11.52
2023-05-01T05:39:29.609Z,11.57
2023-05-01T05:44:28.940Z,11.71
2023-05-01T05:49:30.285Z,11.47
2023-05-01T05:54:31.544Z,11.24
2023-05-01T05:59:33.660Z,11.34
2023-05-01T06:04:32.846Z,11.59
2023-05-01T06:09:33.926Z,11.56
2023-05-01T06:14:35.012Z,11.54
2023-05-01T06:19:36.107Z,11.71
2023-05-01T06:24:37.239Z,11.36
2023-05-01T06:29:38.302Z,11.41
2023-05-01T06:34:40.377Z,11.29
2023-05-01T06:39:39.527Z,11.27
2023-05-01T06:44:40.597Z,11.46
2023-05-01T06:49:41.815Z,11.56
2023-05-01T06:54:42.892Z,11.17
2023-05-01T06:59:44.962Z,11.11
2023-05-01T07:04:44.042Z,11.43
2023-05-01T07:09:45.170Z,11.43
2023-05-01T07:14:46.305Z,11.31
2023-05-01T07:19:47.382Z,11.44
2023-05-01T07:24:48.466Z,11.49
2023-05-01T07:29:50.550Z,11.35
2023-05-01T07:34:50.720Z,11.49
2023-05-01T07:39:49.776Z,11.53
2023-05-01T07:44:50.824Z,11.67
2023-05-01T07:49:52.884Z,11.89
2023-05-01T07:54:52.077Z,11.83
2023-05-01T07:59:54.270Z,11.82
2023-05-01T08:04:53.484Z,11.94
2023-05-01T08:09:56.426Z,12.01
2023-05-01T08:14:55.713Z,12.11
2023-05-01T08:19:56.098Z,12.74
2023-05-01T08:24:55.298Z,12.56
2023-05-01T08:29:56.768Z,12.52
2023-05-01T08:34:56.082Z,12.51
2023-05-01T08:39:57.474Z,12.37
2023-05-01T08:44:57.735Z,12.20
2023-05-01T08:49:58.073Z,12.56
2023-05-01T08:54:58.330Z,12.49
2023-05-01T08:59:57.529Z,12.66
2023-05-01T09:04:58.713Z,13.02
2023-05-01T09:09:59.856Z,13.03
2023-05-01T09:15:03.257Z,13.09
2023-05-01T09:20:02.512Z,12.96
2023-05-01T09:25:05.577Z,12.41
2023-05-01T09:30:05.646Z,12.12
2023-05-01T09:35:04.879Z,12.34
2023-05-01T09:40:05.967Z,12.44
2023-05-01T09:45:07.174Z,12.71
2023-05-01T09:50:08.247Z,12.52
2023-05-01T09:55:09.327Z,12.78
2023-05-01T10:00:11.398Z,12.70
2023-05-01T10:05:10.566Z,12.74
2023-05-01T10:10:11.624Z,13.15
2023-05-01T10:15:24.466Z,13.27
2023-05-01T10:20:12.621Z,13.18
2023-05-01T10:25:13.693Z,13.24
2023-05-01T10:30:14.787Z,13.71
2023-05-01T10:35:38.370Z,13.63
2023-05-01T10:40:15.386Z,13.33
2023-05-01T10:45:16.792Z,13.32
2023-05-01T10:50:17.873Z,13.37
2023-05-01T10:55:18.949Z,13.46
2023-05-01T11:00:20.029Z,13.52
2023-05-01T11:05:32.213Z,14.06
2023-05-01T11:10:21.022Z,13.63
2023-05-01T11:15:22.214Z,13.43
2023-05-01T11:20:23.385Z,13.81
2023-05-01T11:25:24.614Z,13.65
2023-05-01T11:30:25.683Z,13.91
2023-05-01T11:35:27.785Z,13.73
2023-05-01T11:40:27.921Z,13.84
2023-05-01T11:45:30.934Z,13.92
2023-05-01T11:50:28.113Z,14.09
2023-05-01T11:55:29.242Z,14.60
2023-05-01T12:00:30.471Z,15.11
2023-05-01T12:05:32.555Z,15.17
2023-05-01T12:10:32.640Z,15.36
2023-05-01T12:15:33.092Z,15.97
2023-05-01T12:20:34.177Z,16.01
2023-05-01T12:25:35.303Z,16.00
2023-05-01T12:30:36.420Z,17.32
2023-05-01T12:35:38.568Z,17.25
2023-05-01T12:40:38.642Z,15.93
2023-05-01T12:45:38.759Z,16.03
2023-05-01T12:50:39.056Z,16.03
2023-05-01T12:55:38.136Z,16.00
2023-05-01T13:00:40.547Z,16.80
2023-05-01T13:05:39.617Z,17.23
2023-05-01T13:10:40.773Z,16.88
2023-05-01T13:15:41.808Z,16.20
2023-05-01T13:20:43.017Z,16.44
2023-05-01T13:25:45.071Z,15.59
2023-05-01T13:30:44.143Z,15.20
2023-05-01T13:35:46.224Z,14.81
2023-05-01T13:40:45.319Z,14.84
2023-05-01T13:45:47.548Z,14.98
2023-05-01T13:50:46.729Z,15.26
2023-05-01T13:55:48.945Z,15.56
2023-05-01T14:00:48.247Z,15.45
2023-05-01T14:05:49.304Z,15.30
2023-05-01T14:10:50.506Z,15.12
2023-05-01T14:15:52.582Z,14.62
2023-05-01T14:20:51.725Z,14.62
2023-05-01T14:25:52.924Z,14.67
2023-05-01T14:30:54.166Z,15.03
2023-05-01T14:35:55.211Z,15.09
2023-05-01T14:40:56.448Z,15.20
2023-05-01T14:45:57.658Z,14.71
2023-05-01T14:50:58.839Z,14.74
2023-05-01T14:55:59.934Z,15.09
2023-05-01T15:01:01.241Z,15.24
2023-05-01T15:06:02.439Z,15.39
2023-05-01T15:11:03.551Z,14.57
2023-05-01T15:16:05.851Z,14.37
2023-05-01T15:21:05.902Z,13.99
2023-05-01T15:26:04.954Z,13.73
2023-05-01T15:31:06.178Z,13.65
2023-05-01T15:36:07.401Z,14.27
2023-05-01T15:41:08.605Z,14.46
2023-05-01T15:46:10.732Z,14.74
2023-05-01T15:51:09.973Z,14.04
2023-05-01T15:56:11.077Z,13.99
2023-05-01T16:01:12.410Z,14.42
2023-05-01T16:06:13.502Z,14.68
2023-05-01T16:11:14.537Z,14.93
2023-05-01T16:16:15.871Z,14.99
2023-05-01T16:21:19.628Z,14.62
2023-05-01T16:26:18.937Z,14.75
2023-05-01T16:31:27.110Z,14.88
2023-05-01T16:36:18.066Z,14.99
2023-05-01T16:41:20.154Z,14.99
2023-05-01T16:46:19.300Z,15.05
2023-05-01T16:51:20.663Z,15.03
2023-05-01T16:56:22.762Z,14.94
2023-05-01T17:01:21.992Z,14.99
2023-05-01T17:06:24.047Z,15.13
2023-05-01T17:11:23.116Z,14.71
2023-05-01T17:16:25.243Z,14.39
2023-05-01T17:21:24.334Z,14.31
2023-05-01T17:26:25.505Z,14.31
2023-05-01T17:31:27.635Z,14.44
2023-05-01T17:36:26.979Z,14.29
2023-05-01T17:41:28.387Z,14.16
2023-05-01T17:46:30.463Z,13.67
2023-05-01T17:51:29.572Z,13.25
2023-05-01T17:56:31.704Z,12.93
2023-05-01T18:01:31.018Z,12.78
2023-05-01T18:06:32.244Z,12.82
2023-05-01T18:11:34.543Z,12.88
2023-05-01T18:16:34.043Z,13.02
2023-05-01T18:21:36.455Z,12.89
2023-05-01T18:26:35.628Z,12.88
2023-05-01T18:31:37.738Z,12.78
2023-05-01T18:36:37.100Z,12.84
2023-05-01T18:41:38.393Z,12.84
2023-05-01T18:46:40.816Z,13.00
2023-05-01T18:51:40.408Z,12.82
2023-05-01T18:56:39.775Z,12.70
2023-05-01T19:01:41.370Z,12.51
2023-05-01T19:06:40.989Z,12.31
2023-05-01T19:11:40.404Z,12.08
2023-05-01T19:16:41.791Z,12.11
2023-05-01T19:21:44.134Z,11.71
2023-05-01T19:26:43.697Z,11.41
2023-05-01T19:31:44.950Z,11.39
2023-05-01T19:36:43.973Z,11.52
2023-05-01T19:41:45.254Z,11.52
2023-05-01T19:46:46.657Z,11.50
2023-05-01T19:51:47.105Z,11.62
2023-05-01T19:56:48.599Z,11.56
2023-05-01T20:01:48.369Z,11.56
2023-05-01T20:06:47.687Z,11.52
2023-05-01T20:11:48.916Z,11.56
2023-05-01T20:16:50.331Z,11.52
2023-05-01T20:21:51.739Z,11.53
2023-05-01T20:26:51.139Z,11.28
2023-05-01T20:31:53.608Z,11.01
2023-05-01T20:36:52.989Z,11.01
2023-05-01T20:41:55.191Z,11.13
2023-05-01T20:46:55.537Z,11.17
2023-05-01T20:51:55.825Z,11.19
2023-05-01T20:56:54.954Z,11.25
2023-05-01T21:01:56.140Z,11.25
2023-05-01T21:06:58.302Z,11.32
2023-05-01T21:13:17.324Z,11.28
2023-05-01T21:16:58.434Z,11.25
2023-05-01T21:22:01.511Z,11.25
2023-05-01T21:27:00.592Z,11.20
2023-05-01T21:32:04.020Z,11.21
2023-05-01T21:37:03.110Z,11.16
2023-05-01T21:42:05.239Z,11.14
2023-05-01T21:47:05.389Z,11.10
2023-05-01T21:52:05.457Z,11.11
2023-05-01T21:57:05.644Z,11.10
2023-05-01T22:02:05.775Z,11.06
2023-05-01T22:07:04.866Z,11.09
2023-05-01T22:12:06.005Z,11.13
2023-05-01T22:17:07.211Z,11.21
2023-05-01T22:22:09.373Z,11.21
2023-05-01T22:27:09.566Z,11.19
2023-05-01T22:32:09.791Z,11.25
2023-05-01T22:37:09.878Z,11.25
2023-05-01T22:42:09.989Z,11.25
2023-05-01T22:47:09.455Z,11.17
2023-05-01T22:52:10.537Z,11.17
2023-05-01T22:57:11.620Z,11.24
2023-05-01T23:02:12.726Z,11.09
2023-05-01T23:07:14.755Z,10.88
2023-05-01T23:12:13.814Z,10.94
2023-05-01T23:17:14.885Z,10.88
2023-05-01T23:22:15.949Z,10.70
2023-05-01T23:27:17.015Z,10.65
2023-05-01T23:32:19.102Z,10.68
2023-05-01T23:37:20.307Z,10.83
2023-05-01T23:42:22.592Z,11.02
2023-05-01T23:47:20.664Z,11.09
2023-05-01T23:52:19.745Z,11.10
2023-05-01T23:57:20.883Z,11.10
